createdAt,value
2022-08-07T00:00:30.593Z,48.84
2022-08-07T00:02:57.154Z,49.29
2022-08-07T00:05:24.607Z,50.24
2022-08-07T00:07:59.838Z,50.34
2022-08-07T00:10:30.703Z,49.06
2022-08-07T00:13:03.106Z,49.76
2022-08-07T00:15:46.431Z,49.71
2022-08-07T00:18:24.642Z,49.45
2022-08-07T00:20:57.600Z,48.97
2022-08-07T00:23:30.174Z,49.38
2022-08-07T00:26:00.644Z,49.43
2022-08-07T00:28:34.422Z,49.94
2022-08-07T00:31:12.319Z,49.76
2022-08-07T00:33:40.613Z,50.40
2022-08-07T00:36:08.207Z,49.36
2022-08-07T00:38:36.706Z,50.55
2022-08-07T00:41:10.066Z,50.07
2022-08-07T00:43:59.538Z,50.49
2022-08-07T00:46:28.029Z,49.95
2022-08-07T00:48:54.702Z,49.51
2022-08-07T00:51:21.556Z,49.80
2022-08-07T00:53:50.397Z,50.91
2022-08-07T00:56:23.287Z,50.64
2022-08-07T00:58:57.295Z,50.20
2022-08-07T01:01:24.167Z,50.19
2022-08-07T01:03:56.284Z,50.48
2022-08-07T01:06:28.751Z,51.50
2022-08-07T01:08:56.292Z,51.14
2022-08-07T01:12:09.677Z,51.19
2022-08-07T01:14:12.525Z,51.11
2022-08-07T01:16:47.196Z,51.84
2022-08-07T01:19:18.732Z,51.00
2022-08-07T01:21:49.756Z,51.49
2022-08-07T01:24:21.683Z,51.87
2022-08-07T01:26:52.290Z,51.41
2022-08-07T01:29:22.952Z,51.46
2022-08-07T01:31:50.677Z,51.50
2022-08-07T01:34:20.583Z,51.71
2022-08-07T01:36:57.892Z,50.97
2022-08-07T01:39:26.895Z,51.86
2022-08-07T01:42:36.983Z,52.14
2022-08-07T01:44:54.624Z,52.66
2022-08-07T01:48:17.891Z,52.46
2022-08-07T01:50:08.662Z,53.11
2022-08-07T01:52:36.986Z,53.52
2022-08-07T01:55:04.092Z,53.11
2022-08-07T01:58:06.112Z,52.65
2022-08-07T02:00:28.764Z,53.19
2022-08-07T02:03:19.222Z,53.00
2022-08-07T02:06:08.859Z,54.31
2022-08-07T02:08:50.483Z,54.73
2022-08-07T02:11:30.750Z,56.41
2022-08-07T02:14:07.949Z,56.09
2022-08-07T02:16:37.269Z,58.14
2022-08-07T02:20:04.045Z,58.12
2022-08-07T02:21:55.144Z,58.09
2022-08-07T02:24:22.946Z,57.28
2022-08-07T02:26:50.444Z,58.96
2022-08-07T02:29:21.945Z,56.34
2022-08-07T02:31:50.124Z,57.12
2022-08-07T02:34:18.124Z,56.87
2022-08-07T02:36:48.438Z,57.17
2022-08-07T02:39:43.383Z,55.92
2022-08-07T02:42:03.558Z,57.01
2022-08-07T02:44:37.476Z,54.97
2022-08-07T02:47:19.833Z,55.43
2022-08-07T02:49:56.048Z,56.23
2022-08-07T02:52:53.192Z,57.08
2022-08-07T02:55:28.751Z,55.18
2022-08-07T02:58:11.662Z,55.58
2022-08-07T03:00:39.453Z,56.10
2022-08-07T03:03:07.706Z,56.26
2022-08-07T03:05:40.559Z,55.57
2022-08-07T03:08:10.182Z,55.13
2022-08-07T03:10:40.955Z,55.72
2022-08-07T03:13:19.399Z,55.92
2022-08-07T03:15:55.925Z,57.11
2022-08-07T03:18:24.478Z,55.59
2022-08-07T03:21:01.630Z,56.17
2022-08-07T03:23:33.789Z,56.46
2022-08-07T03:26:21.290Z,55.26
2022-08-07T03:28:51.609Z,55.97
2022-08-07T03:31:19.502Z,56.26
2022-08-07T03:34:02.858Z,56.48
2022-08-07T03:36:30.900Z,57.09
2022-08-07T03:39:05.391Z,55.92
2022-08-07T03:41:41.838Z,56.90
2022-08-07T03:44:13.776Z,58.24
2022-08-07T03:47:13.441Z,58.59
2022-08-07T03:49:29.507Z,57.71
2022-08-07T03:52:01.797Z,57.77
2022-08-07T03:54:36.211Z,58.23
2022-08-07T03:58:08.819Z,58.70
2022-08-07T04:00:03.901Z,58.57
2022-08-07T04:02:30.981Z,58.59
2022-08-07T04:04:58.330Z,58.44
2022-08-07T04:07:25.585Z,58.60
2022-08-07T04:10:04.574Z,58.52
2022-08-07T04:12:32.636Z,59.21
2022-08-07T04:15:02.251Z,59.36
2022-08-07T04:18:56.603Z,59.04
2022-08-07T04:20:19.478Z,59.20
2022-08-07T04:22:53.785Z,59.14
2022-08-07T04:25:29.285Z,58.83
2022-08-07T04:27:59.246Z,59.29
2022-08-07T04:30:43.524Z,60.67
2022-08-07T04:33:13.780Z,60.34
2022-08-07T04:35:44.898Z,59.41
2022-08-07T04:38:17.272Z,60.27
2022-08-07T04:40:51.752Z,58.78
2022-08-07T04:43:21.592Z,58.35
2022-08-07T04:46:29.503Z,59.46
2022-08-07T04:49:25.615Z,59.32
2022-08-07T04:52:18.637Z,58.63
2022-08-07T04:54:54.250Z,58.92
2022-08-07T04:58:13.808Z,59.21
2022-08-07T05:00:30.009Z,58.22
2022-08-07T05:04:06.647Z,58.35
2022-08-07T05:06:43.431Z,56.21
2022-08-07T05:09:42.924Z,56.41
2022-08-07T05:12:26.523Z,55.46
2022-08-07T05:15:04.459Z,56.72
2022-08-07T05:17:51.805Z,56.06
2022-08-07T05:20:25.025Z,55.00
2022-08-07T05:22:55.271Z,53.79
2022-08-07T05:25:35.650Z,53.33
2022-08-07T05:28:20.305Z,53.78
2022-08-07T05:30:50.773Z,53.46
2022-08-07T05:33:21.312Z,52.82
2022-08-07T05:35:49.884Z,50.36
2022-08-07T05:38:59.873Z,51.03
2022-08-07T05:41:12.013Z,47.88
2022-08-07T05:43:49.612Z,47.06
2022-08-07T05:46:29.500Z,47.60
2022-08-07T05:48:58.354Z,45.81
2022-08-07T05:51:26.281Z,45.23
2022-08-07T05:54:09.257Z,45.94
2022-08-07T05:56:47.409Z,45.64
2022-08-07T05:59:19.465Z,45.62
2022-08-07T06:01:48.544Z,43.84
2022-08-07T06:04:17.443Z,44.17
2022-08-07T06:06:45.843Z,43.99
2022-08-07T06:09:15.345Z,43.05
2022-08-07T06:11:42.225Z,43.59
2022-08-07T06:14:12.211Z,42.77
2022-08-07T06:16:50.254Z,41.69
2022-08-07T06:19:51.817Z,42.36
2022-08-07T06:22:14.368Z,42.20
2022-08-07T06:24:55.610Z,40.81
2022-08-07T06:27:44.149Z,41.13
2022-08-07T06:30:32.454Z,40.45
2022-08-07T06:32:59.118Z,40.17
2022-08-07T06:35:39.166Z,40.34
2022-08-07T06:38:20.445Z,39.70
2022-08-07T06:40:50.204Z,39.28
2022-08-07T06:43:21.283Z,38.56
2022-08-07T06:45:49.051Z,39.24
2022-08-07T06:48:15.613Z,38.47
2022-08-07T06:50:52.120Z,38.90
2022-08-07T06:55:27.499Z,38.50
2022-08-07T06:56:15.326Z,37.53
2022-08-07T07:00:14.774Z,37.30
2022-08-07T07:01:33.097Z,36.89
2022-08-07T07:04:32.588Z,36.90
2022-08-07T07:07:01.165Z,36.76
2022-08-07T07:09:30.903Z,37.27
2022-08-07T07:12:18.077Z,36.72
2022-08-07T07:15:09.074Z,37.06
2022-08-07T07:17:53.275Z,35.85
2022-08-07T07:20:26.331Z,36.68
2022-08-07T07:24:08.775Z,36.61
2022-08-07T07:26:35.579Z,36.33
2022-08-07T07:28:48.289Z,36.87
2022-08-07T07:31:40.088Z,37.05
2022-08-07T07:34:15.595Z,36.34
2022-08-07T07:36:43.219Z,35.97
2022-08-07T07:39:16.150Z,36.41
2022-08-07T07:42:01.805Z,36.83
2022-08-07T07:44:36.476Z,37.18
2022-08-07T07:47:14.149Z,36.78
2022-08-07T07:50:33.276Z,36.74
2022-08-07T07:52:38.712Z,36.71
2022-08-07T07:55:08.152Z,39.02
2022-08-07T07:57:51.574Z,39.20
2022-08-07T08:00:31.437Z,38.37
2022-08-07T08:03:08.233Z,37.86
2022-08-07T08:05:50.846Z,37.44
2022-08-07T08:08:34.940Z,37.61
2022-08-07T08:11:13.859Z,37.78
2022-08-07T08:13:54.189Z,38.21
2022-08-07T08:16:29.955Z,38.50
2022-08-07T08:18:58.741Z,37.58
2022-08-07T08:22:02.523Z,36.92
2022-08-07T08:25:04.676Z,37.57
2022-08-07T08:27:39.298Z,37.71
2022-08-07T08:30:14.291Z,37.77
2022-08-07T08:33:00.473Z,36.73
2022-08-07T08:35:39.361Z,37.84
2022-08-07T08:38:18.417Z,37.44
2022-08-07T08:41:02.735Z,37.15
2022-08-07T08:43:42.925Z,36.79
2022-08-07T08:46:32.095Z,37.26
2022-08-07T08:49:33.602Z,37.03
2022-08-07T08:52:16.682Z,36.41
2022-08-07T08:54:56.703Z,36.43
2022-08-07T08:57:33.919Z,36.46
2022-08-07T09:00:09.207Z,36.16
2022-08-07T09:03:07.556Z,36.64
2022-08-07T09:05:46.926Z,35.67
2022-08-07T09:08:46.792Z,36.06
2022-08-07T09:11:43.695Z,36.75
2022-08-07T09:14:20.756Z,35.88
2022-08-07T09:17:24.486Z,35.93
2022-08-07T09:20:34.652Z,35.79
2022-08-07T09:24:33.732Z,35.06
2022-08-07T09:26:30.307Z,36.21
2022-08-07T09:30:03.415Z,36.26
2022-08-07T09:32:05.783Z,35.66
2022-08-07T09:36:04.245Z,35.21
2022-08-07T09:38:10.356Z,34.89
2022-08-07T09:40:46.703Z,35.62
2022-08-07T09:44:03.485Z,35.69
2022-08-07T09:47:50.137Z,35.62
2022-08-07T09:50:00.573Z,34.66
2022-08-07T09:52:53.925Z,35.25
2022-08-07T09:56:02.448Z,35.35
2022-08-07T09:58:48.492Z,35.33
2022-08-07T10:01:53.044Z,35.00
2022-08-07T10:04:47.563Z,33.98
2022-08-07T10:07:53.411Z,33.42
2022-08-07T10:11:17.080Z,33.02
2022-08-07T10:14:01.026Z,31.82
2022-08-07T10:16:34.681Z,33.09
2022-08-07T10:19:42.867Z,32.58
2022-08-07T10:22:33.771Z,31.06
2022-08-07T10:25:07.863Z,31.48
2022-08-07T10:27:53.114Z,30.90
2022-08-07T10:30:41.286Z,28.77
2022-08-07T10:34:14.179Z,29.50
2022-08-07T10:36:36.266Z,30.85
2022-08-07T10:39:41.353Z,30.53
2022-08-07T10:42:36.632Z,30.30
2022-08-07T10:45:44.038Z,30.40
2022-08-07T10:48:17.877Z,30.91
2022-08-07T10:50:59.577Z,29.09
2022-08-07T10:53:45.576Z,29.78
2022-08-07T10:56:30.988Z,30.70
2022-08-07T10:59:22.114Z,30.25
2022-08-07T11:02:11.873Z,31.55
2022-08-07T11:04:58.971Z,31.30
2022-08-07T11:08:06.640Z,30.87
2022-08-07T11:11:00.067Z,31.37
2022-08-07T11:14:46.081Z,29.89
2022-08-07T11:16:54.820Z,30.09
2022-08-07T11:19:29.377Z,29.59
2022-08-07T11:22:05.247Z,29.63
2022-08-07T11:24:52.035Z,29.43
2022-08-07T11:28:00.887Z,29.24
2022-08-07T11:30:19.295Z,29.00
2022-08-07T11:33:14.020Z,29.07
2022-08-07T11:36:00.776Z,28.69
2022-08-07T11:38:33.594Z,29.21
2022-08-07T11:42:00.105Z,29.10
2022-08-07T11:44:25.018Z,29.97
2022-08-07T11:46:55.547Z,28.82
2022-08-07T11:50:18.690Z,28.71
2022-08-07T11:52:47.876Z,29.83
2022-08-07T11:56:15.565Z,27.44
2022-08-07T12:00:07.651Z,28.73
2022-08-07T12:02:20.685Z,28.88
2022-08-07T12:05:41.454Z,27.31
2022-08-07T12:08:26.117Z,26.63
2022-08-07T12:11:20.226Z,27.08
2022-08-07T12:13:58.043Z,28.04
2022-08-07T12:16:30.434Z,27.89
2022-08-07T12:20:04.950Z,27.09
2022-08-07T12:22:58.433Z,27.93
2022-08-07T12:26:05.376Z,26.72
2022-08-07T12:28:49.852Z,27.12
2022-08-07T12:31:53.316Z,26.49
2022-08-07T12:34:30.522Z,25.47
2022-08-07T12:36:58.794Z,27.30
2022-08-07T12:39:42.749Z,26.09
2022-08-07T12:42:13.280Z,26.47
2022-08-07T12:44:43.024Z,26.30
2022-08-07T12:47:21.740Z,27.92
2022-08-07T12:50:38.513Z,25.73
2022-08-07T12:52:59.257Z,27.07
2022-08-07T12:56:02.331Z,26.34
2022-08-07T12:58:35.512Z,26.57
2022-08-07T13:01:21.119Z,26.96
2022-08-07T13:04:32.647Z,26.82
2022-08-07T13:08:13.005Z,26.59
2022-08-07T13:10:37.992Z,27.06
2022-08-07T13:13:48.873Z,27.24
2022-08-07T13:16:41.139Z,28.33
2022-08-07T13:19:22.020Z,27.89
2022-08-07T13:22:20.008Z,25.65
2022-08-07T13:25:00.555Z,28.50
2022-08-07T13:28:11.205Z,25.95
2022-08-07T13:30:41.325Z,26.54
2022-08-07T13:34:30.241Z,25.69
2022-08-07T13:36:41.795Z,26.37
2022-08-07T13:39:28.518Z,27.12
2022-08-07T13:42:14.612Z,26.57
2022-08-07T13:45:20.986Z,26.04
2022-08-07T13:48:04.319Z,25.24
2022-08-07T13:50:34.120Z,25.91
2022-08-07T13:53:21.721Z,25.89
2022-08-07T13:55:54.917Z,26.20
2022-08-07T13:58:43.268Z,27.35
2022-08-07T14:01:25.975Z,25.43
2022-08-07T14:04:07.633Z,25.14
2022-08-07T14:06:38.370Z,25.05
2022-08-07T14:09:06.338Z,26.06
2022-08-07T14:11:53.294Z,25.88
2022-08-07T14:14:39.576Z,26.89
2022-08-07T14:17:32.042Z,27.39
2022-08-07T14:20:41.712Z,26.45
2022-08-07T14:22:53.118Z,28.53
2022-08-07T14:25:25.317Z,26.58
2022-08-07T14:28:10.986Z,25.70
2022-08-07T14:30:40.711Z,27.19
2022-08-07T14:33:08.221Z,26.94
2022-08-07T14:35:45.378Z,27.34
2022-08-07T14:38:30.206Z,26.01
2022-08-07T14:41:03.859Z,27.66
2022-08-07T14:43:57.574Z,26.32
2022-08-07T14:46:31.238Z,26.64
2022-08-07T14:48:59.134Z,26.82
2022-08-07T14:52:04.591Z,27.46
2022-08-07T14:54:35.846Z,26.24
2022-08-07T14:57:11.459Z,27.97
2022-08-07T15:00:03.150Z,25.94
2022-08-07T15:02:34.576Z,26.07
2022-08-07T15:05:02.173Z,26.28
2022-08-07T15:07:47.454Z,27.98
2022-08-07T15:10:26.599Z,25.99
2022-08-07T15:12:59.115Z,26.89
2022-08-07T15:15:34.526Z,27.29
2022-08-07T15:18:14.557Z,26.79
2022-08-07T15:20:59.432Z,25.65
2022-08-07T15:25:03.147Z,26.34
2022-08-07T15:26:28.793Z,27.24
2022-08-07T15:28:59.596Z,27.59
2022-08-07T15:32:01.363Z,25.87
2022-08-07T15:34:36.893Z,26.70
2022-08-07T15:39:57.740Z,26.14
2022-08-07T15:42:44.271Z,26.98
2022-08-07T15:45:19.424Z,27.04
2022-08-07T15:48:01.927Z,27.86
2022-08-07T15:51:01.417Z,25.85
2022-08-07T15:53:53.057Z,26.26
2022-08-07T15:56:24.111Z,26.90
2022-08-07T15:58:58.766Z,26.46
2022-08-07T16:01:38.802Z,26.49
2022-08-07T16:04:14.620Z,26.49
2022-08-07T16:06:59.529Z,26.10
2022-08-07T16:09:41.960Z,28.19
2022-08-07T16:12:33.552Z,25.10
2022-08-07T16:15:57.624Z,26.63
2022-08-07T16:18:49.411Z,25.49
2022-08-07T16:21:56.874Z,26.91
2022-08-07T16:24:34.683Z,27.39
2022-08-07T16:27:19.163Z,25.20
2022-08-07T16:30:11.803Z,26.12
2022-08-07T16:32:54.570Z,26.43
2022-08-07T16:35:56.979Z,25.49
2022-08-07T16:39:00.037Z,25.92
2022-08-07T16:41:55.724Z,26.12
2022-08-07T16:45:14.792Z,26.47
2022-08-07T16:47:57.102Z,26.26
2022-08-07T16:51:20.715Z,26.59
2022-08-07T16:54:06.755Z,26.13
2022-08-07T16:56:53.515Z,27.47
2022-08-07T16:59:46.861Z,28.38
2022-08-07T17:02:51.689Z,26.66
2022-08-07T17:06:19.445Z,28.11
2022-08-07T17:09:14.091Z,27.12
2022-08-07T17:12:44.500Z,27.11
2022-08-07T17:14:59.877Z,27.78
2022-08-07T17:17:48.271Z,27.66
2022-08-07T17:20:37.818Z,28.38
2022-08-07T17:23:22.671Z,26.96
2022-08-07T17:26:23.233Z,27.80
2022-08-07T17:30:13.009Z,27.59
2022-08-07T17:32:30.985Z,28.52
2022-08-07T17:35:51.020Z,27.90
2022-08-07T17:38:11.379Z,28.01
2022-08-07T17:42:00.707Z,29.24
2022-08-07T17:44:50.346Z,28.16
2022-08-07T17:47:38.176Z,27.81
2022-08-07T17:50:18.893Z,28.67
2022-08-07T17:53:55.720Z,29.44
2022-08-07T17:56:14.925Z,29.31
2022-08-07T17:58:52.972Z,28.78
2022-08-07T18:01:37.133Z,29.67
2022-08-07T18:04:31.076Z,29.52
2022-08-07T18:07:19.991Z,30.06
2022-08-07T18:10:06.273Z,29.89
2022-08-07T18:13:11.510Z,30.12
2022-08-07T18:16:10.270Z,31.23
2022-08-07T18:21:03.742Z,29.61
2022-08-07T18:21:58.337Z,30.02
2022-08-07T18:24:28.433Z,30.96
2022-08-07T18:27:17.310Z,31.21
2022-08-07T18:30:05.886Z,31.56
2022-08-07T18:33:10.842Z,31.57
2022-08-07T18:35:57.539Z,31.64
2022-08-07T18:38:55.412Z,31.66
2022-08-07T18:42:32.604Z,31.90
2022-08-07T18:45:43.907Z,32.11
2022-08-07T18:48:10.245Z,32.41
2022-08-07T18:51:07.035Z,33.24
2022-08-07T18:53:55.702Z,32.65
2022-08-07T18:56:58.358Z,32.87
2022-08-07T18:59:47.961Z,33.54
2022-08-07T19:02:36.888Z,33.65
2022-08-07T19:05:22.218Z,34.34
2022-08-07T19:08:03.926Z,35.28
2022-08-07T19:10:51.822Z,35.87
2022-08-07T19:13:50.114Z,36.37
2022-08-07T19:17:06.351Z,36.96
2022-08-07T19:19:54.552Z,37.55
2022-08-07T19:22:31.226Z,37.81
2022-08-07T19:24:58.813Z,37.79
2022-08-07T19:29:02.825Z,38.25
2022-08-07T19:31:00.138Z,39.04
2022-08-07T19:33:12.994Z,39.02
2022-08-07T19:35:43.847Z,39.83
2022-08-07T19:38:16.087Z,39.58
2022-08-07T19:40:50.570Z,39.91
2022-08-07T19:43:43.174Z,40.00
2022-08-07T19:46:10.174Z,40.96
2022-08-07T19:48:44.173Z,41.57
2022-08-07T19:51:20.079Z,41.88
2022-08-07T19:54:31.667Z,42.11
2022-08-07T19:58:02.348Z,43.63
2022-08-07T19:59:39.690Z,43.75
2022-08-07T20:02:15.481Z,44.11
2022-08-07T20:04:49.037Z,44.78
2022-08-07T20:07:23.716Z,44.38
2022-08-07T20:10:36.796Z,43.82
2022-08-07T20:12:51.922Z,43.65
2022-08-07T20:15:23.243Z,43.79
2022-08-07T20:18:01.755Z,43.61
2022-08-07T20:20:31.964Z,44.60
2022-08-07T20:23:22.833Z,44.54
2022-08-07T20:25:53.146Z,44.86
2022-08-07T20:28:20.645Z,44.38
2022-08-07T20:30:56.492Z,44.41
2022-08-07T20:33:36.607Z,44.34
2022-08-07T20:36:06.861Z,44.73
2022-08-07T20:38:34.265Z,44.74
2022-08-07T20:41:03.937Z,45.27
2022-08-07T20:43:33.134Z,45.05
2022-08-07T20:46:28.848Z,44.44
2022-08-07T20:49:54.561Z,44.15
2022-08-07T20:51:40.446Z,43.05
2022-08-07T20:54:29.700Z,42.93
2022-08-07T20:57:00.553Z,42.47
2022-08-07T21:00:06.701Z,42.24
2022-08-07T21:02:41.367Z,42.82
2022-08-07T21:05:43.085Z,42.09
2022-08-07T21:08:16.375Z,42.26
2022-08-07T21:10:49.049Z,42.41
2022-08-07T21:13:24.637Z,41.94
2022-08-07T21:16:09.075Z,41.93
2022-08-07T21:18:41.270Z,41.47
2022-08-07T21:21:16.140Z,41.70
2022-08-07T21:23:50.870Z,41.63
2022-08-07T21:26:47.851Z,41.94
2022-08-07T21:29:39.697Z,42.40
2022-08-07T21:32:47.575Z,42.61
2022-08-07T21:35:34.847Z,44.60
2022-08-07T21:38:27.648Z,46.06
2022-08-07T21:41:10.107Z,46.22
2022-08-07T21:43:56.380Z,47.05
2022-08-07T21:46:46.155Z,47.15
2022-08-07T21:50:02.745Z,47.21
2022-08-07T21:52:58.677Z,46.81
2022-08-07T21:55:36.528Z,46.98
2022-08-07T21:58:12.369Z,46.61
2022-08-07T22:01:05.176Z,46.72
2022-08-07T22:03:44.344Z,46.04
2022-08-07T22:06:29.960Z,47.54
2022-08-07T22:09:08.419Z,47.40
2022-08-07T22:12:05.850Z,48.12
2022-08-07T22:14:36.081Z,48.33
2022-08-07T22:17:04.219Z,48.82
2022-08-07T22:19:36.938Z,49.42
2022-08-07T22:22:28.813Z,49.66
2022-08-07T22:25:11.080Z,49.68
2022-08-07T22:28:30.175Z,49.10
2022-08-07T22:31:59.368Z,49.54
2022-08-07T22:34:15.156Z,49.07
2022-08-07T22:36:53.433Z,49.91
2022-08-07T22:39:28.921Z,49.27
2022-08-07T22:42:19.366Z,49.20
2022-08-07T22:44:58.003Z,49.56
2022-08-07T22:47:38.139Z,49.25
2022-08-07T22:50:29.061Z,50.14
2022-08-07T22:53:05.880Z,49.24
2022-08-07T22:55:46.049Z,50.18
2022-08-07T22:58:33.530Z,49.90
2022-08-07T23:01:18.570Z,50.49
2022-08-07T23:04:00.289Z,50.46
2022-08-07T23:06:55.254Z,51.50
2022-08-07T23:10:03.733Z,50.92
2022-08-07T23:12:34.390Z,51.98
2022-08-07T23:16:04.564Z,51.54
2022-08-07T23:18:18.300Z,51.39
2022-08-07T23:21:00.552Z,52.19
2022-08-07T23:24:05.260Z,51.57
2022-08-07T23:26:57.849Z,52.10
2022-08-07T23:30:37.031Z,53.18
2022-08-07T23:34:35.633Z,51.28
2022-08-07T23:36:06.023Z,53.58
2022-08-07T23:38:42.711Z,52.95
2022-08-07T23:41:33.467Z,53.25
2022-08-07T23:44:29.573Z,53.04
2022-08-07T23:47:46.706Z,53.55
2022-08-07T23:50:29.666Z,54.10
2022-08-07T23:53:21.303Z,54.58
2022-08-07T23:56:15.704Z,54.57
